createdAt,value
2018-05-16T00:01:18.552Z,78.30
2018-05-16T00:03:46.343Z,79.50
2018-05-16T00:06:13.902Z,78.80
2018-05-16T00:08:41.463Z,80.00
2018-05-16T00:11:09.013Z,81.20
2018-05-16T00:13:36.560Z,80.80
2018-05-16T00:16:04.141Z,80.90
2018-05-16T00:18:31.692Z,79.40
2018-05-16T00:20:59.289Z,80.80
2018-05-16T00:23:26.840Z,82.00
2018-05-16T00:25:54.389Z,81.60
2018-05-16T00:28:21.988Z,81.00
2018-05-16T00:30:49.540Z,81.00
2018-05-16T00:33:17.092Z,81.00
2018-05-16T00:35:45.413Z,78.70
2018-05-16T00:38:13.047Z,78.50
2018-05-16T00:40:40.576Z,78.50
2018-05-16T00:43:08.132Z,78.50
2018-05-16T00:45:36.448Z,77.00
2018-05-16T00:48:04.007Z,77.20
2018-05-16T00:50:31.566Z,78.90
2018-05-16T00:52:59.146Z,80.20
2018-05-16T00:55:26.700Z,79.00
2018-05-16T00:57:54.260Z,79.30
2018-05-16T01:00:21.816Z,75.90
2018-05-16T01:02:49.364Z,75.40
2018-05-16T01:05:16.942Z,76.70
2018-05-16T01:07:44.503Z,76.60
2018-05-16T01:10:12.060Z,75.40
2018-05-16T01:12:39.616Z,75.10
2018-05-16T01:15:07.169Z,76.50
2018-05-16T01:17:34.757Z,76.70
2018-05-16T01:20:02.316Z,77.20
2018-05-16T01:22:29.872Z,77.90
2018-05-16T01:24:58.193Z,78.40
2018-05-16T01:27:25.744Z,78.40
2018-05-16T01:29:53.326Z,79.40
2018-05-16T01:32:21.653Z,80.60
2018-05-16T01:34:49.208Z,80.60
2018-05-16T01:37:16.760Z,81.30
2018-05-16T01:39:45.085Z,80.40
2018-05-16T01:42:12.668Z,80.50
2018-05-16T01:44:40.218Z,81.40
2018-05-16T01:47:07.768Z,81.30
2018-05-16T01:49:35.344Z,81.40
2018-05-16T01:52:03.670Z,81.70
2018-05-16T01:54:31.457Z,81.70
2018-05-16T01:56:59.007Z,83.50
2018-05-16T01:59:26.561Z,81.50
2018-05-16T02:01:54.128Z,81.20
2018-05-16T02:04:21.692Z,82.10
2018-05-16T02:06:49.284Z,82.60
2018-05-16T02:09:16.840Z,81.50
2018-05-16T02:11:45.162Z,84.20
2018-05-16T02:14:12.727Z,84.20
2018-05-16T02:16:40.296Z,84.90
2018-05-16T02:19:07.880Z,83.20
2018-05-16T02:21:35.428Z,82.30
2018-05-16T02:24:03.457Z,82.70
2018-05-16T02:26:31.009Z,82.90
2018-05-16T02:28:58.561Z,83.10
2018-05-16T02:31:26.910Z,84.40
2018-05-16T02:33:54.496Z,84.30
2018-05-16T02:36:22.054Z,84.80
2018-05-16T02:38:49.612Z,85.20
2018-05-16T02:41:17.931Z,85.40
2018-05-16T02:43:45.512Z,85.40
2018-05-16T02:46:13.075Z,85.50
2018-05-16T02:48:40.629Z,85.10
2018-05-16T02:51:08.177Z,86.60
2018-05-16T02:53:35.724Z,85.30
2018-05-16T02:56:03.306Z,85.00
2018-05-16T02:58:30.852Z,85.40
2018-05-16T03:00:58.406Z,86.20
2018-05-16T03:03:25.954Z,86.60
2018-05-16T03:05:53.505Z,86.80
2018-05-16T03:08:21.094Z,85.50
2018-05-16T03:10:48.654Z,85.00
2018-05-16T03:13:16.208Z,83.20
2018-05-16T03:15:43.760Z,84.00
2018-05-16T03:18:11.312Z,84.30
2018-05-16T03:20:38.900Z,84.30
2018-05-16T03:23:06.455Z,84.20
2018-05-16T03:25:34.013Z,84.40
2018-05-16T03:28:02.337Z,82.70
2018-05-16T03:30:30.089Z,82.70
2018-05-16T03:32:57.660Z,80.70
2018-05-16T03:35:25.214Z,83.00
2018-05-16T03:37:52.769Z,82.60
2018-05-16T03:40:20.320Z,79.00
2018-05-16T03:42:47.875Z,81.20
2018-05-16T03:45:15.744Z,83.10
2018-05-16T03:47:43.301Z,81.50
2018-05-16T03:50:10.853Z,80.40
2018-05-16T03:52:38.409Z,76.40
2018-05-16T03:55:05.964Z,78.90
2018-05-16T03:57:45.420Z,79.30
2018-05-16T04:00:24.684Z,79.70
2018-05-16T04:03:04.029Z,80.70
2018-05-16T04:05:31.647Z,79.00
2018-05-16T04:07:59.204Z,79.00
2018-05-16T04:10:26.768Z,74.40
2018-05-16T04:12:54.320Z,75.80
2018-05-16T04:15:21.873Z,77.30
2018-05-16T04:17:49.452Z,76.40
2018-05-16T04:20:17.005Z,75.50
2018-05-16T04:22:44.556Z,72.70
2018-05-16T04:25:12.112Z,76.20
2018-05-16T04:27:39.670Z,77.30
2018-05-16T04:30:07.248Z,74.30
2018-05-16T04:32:34.840Z,80.60
2018-05-16T04:35:02.376Z,79.80
2018-05-16T04:37:29.933Z,77.10
2018-05-16T04:39:57.484Z,80.10
2018-05-16T04:42:25.060Z,80.10
2018-05-16T04:44:52.615Z,80.00
2018-05-16T04:47:20.168Z,80.10
2018-05-16T04:49:47.720Z,81.10
2018-05-16T04:52:15.272Z,81.50
2018-05-16T04:54:42.852Z,78.50
2018-05-16T04:57:10.400Z,77.50
2018-05-16T04:59:37.957Z,77.30
2018-05-16T05:02:05.536Z,77.60
2018-05-16T05:04:33.096Z,77.70
2018-05-16T05:07:01.416Z,76.90
2018-05-16T05:09:28.972Z,76.80
2018-05-16T05:11:56.531Z,77.50
2018-05-16T05:14:24.085Z,74.10
2018-05-16T05:16:51.639Z,73.70
2018-05-16T05:19:19.228Z,73.80
2018-05-16T05:21:46.775Z,71.40
2018-05-16T05:24:14.337Z,71.50
2018-05-16T05:26:41.896Z,72.20
2018-05-16T05:29:09.472Z,73.30
2018-05-16T05:31:37.025Z,72.10
2018-05-16T05:34:04.584Z,71.50
2018-05-16T05:36:32.139Z,71.10
2018-05-16T05:38:59.692Z,70.50
2018-05-16T05:41:27.283Z,68.90
2018-05-16T05:43:54.835Z,69.40
2018-05-16T05:46:23.160Z,70.40
2018-05-16T05:48:50.717Z,70.30
2018-05-16T05:51:18.281Z,68.80
2018-05-16T05:53:46.632Z,66.80
2018-05-16T05:56:14.192Z,66.90
2018-05-16T05:58:41.754Z,66.20
2018-05-16T06:01:09.316Z,64.60
2018-05-16T06:03:36.873Z,64.40
2018-05-16T06:06:04.650Z,63.30
2018-05-16T06:08:32.208Z,61.90
2018-05-16T06:10:59.761Z,60.40
2018-05-16T06:13:27.320Z,59.50
2018-05-16T06:15:54.881Z,59.80
2018-05-16T06:18:22.457Z,56.70
2018-05-16T06:20:50.012Z,53.40
2018-05-16T06:23:17.569Z,55.70
2018-05-16T06:25:45.128Z,54.90
2018-05-16T06:28:12.689Z,52.10
2018-05-16T06:30:40.268Z,51.90
2018-05-16T06:33:07.836Z,50.60
2018-05-16T06:35:35.392Z,50.20
2018-05-16T06:38:03.712Z,48.60
2018-05-16T06:40:31.270Z,48.50
2018-05-16T06:42:58.845Z,48.10
2018-05-16T06:45:26.403Z,43.50
2018-05-16T06:47:53.960Z,45.40
2018-05-16T06:50:21.513Z,42.70
2018-05-16T06:52:49.064Z,41.50
2018-05-16T06:55:16.633Z,40.60
2018-05-16T06:57:44.184Z,42.50
2018-05-16T07:00:11.738Z,40.70
2018-05-16T07:02:39.296Z,39.10
2018-05-16T07:05:06.854Z,37.70
2018-05-16T07:07:34.429Z,39.00
2018-05-16T07:10:01.976Z,40.50
2018-05-16T07:12:29.529Z,38.30
2018-05-16T07:14:57.092Z,39.20
2018-05-16T07:17:24.652Z,39.30
2018-05-16T07:19:52.232Z,37.70
2018-05-16T07:22:19.792Z,38.00
2018-05-16T07:24:47.352Z,37.70
2018-05-16T07:27:14.910Z,36.90
2018-05-16T07:29:42.464Z,38.70
2018-05-16T07:32:10.048Z,36.70
2018-05-16T07:34:37.601Z,33.30
2018-05-16T07:37:05.158Z,34.00
2018-05-16T07:39:33.485Z,37.90
2018-05-16T07:42:01.049Z,37.70
2018-05-16T07:44:28.637Z,37.70
2018-05-16T07:46:56.206Z,36.10
2018-05-16T07:49:24.537Z,35.80
2018-05-16T07:51:52.092Z,35.80
2018-05-16T07:54:19.651Z,35.00
2018-05-16T07:56:47.237Z,35.70
2018-05-16T07:59:15.585Z,35.40
2018-05-16T08:01:43.138Z,35.60
2018-05-16T08:04:10.688Z,34.30
2018-05-16T08:06:38.240Z,32.80
2018-05-16T08:09:05.824Z,33.10
2018-05-16T08:11:33.376Z,34.10
2018-05-16T08:14:00.929Z,31.60
2018-05-16T08:16:28.486Z,34.50
2018-05-16T08:18:56.051Z,34.20
2018-05-16T08:21:23.633Z,33.40
2018-05-16T08:23:51.184Z,30.00
2018-05-16T08:26:18.740Z,29.20
2018-05-16T08:28:46.760Z,31.20
2018-05-16T08:31:14.414Z,29.80
2018-05-16T08:33:41.916Z,30.00
2018-05-16T08:36:09.472Z,31.60
2018-05-16T08:38:37.024Z,33.10
2018-05-16T08:41:04.581Z,32.20
2018-05-16T08:43:32.140Z,31.10
2018-05-16T08:45:59.721Z,33.00
2018-05-16T08:48:27.277Z,32.40
2018-05-16T08:50:54.833Z,31.10
2018-05-16T08:53:22.393Z,32.60
2018-05-16T08:55:49.949Z,31.90
2018-05-16T08:58:17.529Z,30.00
2018-05-16T09:00:45.085Z,31.30
2018-05-16T09:03:12.640Z,31.20
2018-05-16T09:05:40.193Z,28.70
2018-05-16T09:08:07.745Z,29.30
2018-05-16T09:10:35.324Z,30.80
2018-05-16T09:13:02.884Z,31.20
2018-05-16T09:15:30.438Z,29.60
2018-05-16T09:17:58.016Z,30.00
2018-05-16T09:20:25.568Z,29.30
2018-05-16T09:22:53.120Z,30.40
2018-05-16T09:25:21.444Z,30.30
2018-05-16T09:27:48.996Z,30.40
2018-05-16T09:30:16.582Z,28.40
2018-05-16T09:32:44.137Z,29.60
2018-05-16T09:35:11.692Z,28.70
2018-05-16T09:37:39.252Z,28.70
2018-05-16T09:40:06.809Z,29.40
2018-05-16T09:42:34.392Z,30.00
2018-05-16T09:45:01.948Z,29.30
2018-05-16T09:47:29.504Z,30.60
2018-05-16T09:49:57.056Z,30.70
2018-05-16T09:52:24.617Z,28.60
2018-05-16T09:54:52.208Z,28.00
2018-05-16T09:57:20.528Z,30.10
2018-05-16T09:59:48.087Z,30.10
2018-05-16T10:02:15.640Z,27.70
2018-05-16T10:04:43.838Z,28.50
2018-05-16T10:07:11.424Z,28.70
2018-05-16T10:09:38.988Z,27.60
2018-05-16T10:12:06.556Z,29.50
2018-05-16T10:14:34.194Z,27.70
2018-05-16T10:17:01.722Z,29.40
2018-05-16T10:19:29.305Z,28.60
2018-05-16T10:21:56.873Z,29.00
2018-05-16T10:24:24.425Z,29.00
2018-05-16T10:26:52.752Z,27.20
2018-05-16T10:29:20.312Z,27.20
2018-05-16T10:31:47.913Z,30.20
2018-05-16T10:34:15.488Z,27.10
2018-05-16T10:36:43.812Z,30.00
2018-05-16T10:39:11.373Z,29.90
2018-05-16T10:41:38.924Z,29.50
2018-05-16T10:44:06.517Z,28.30
2018-05-16T10:46:34.068Z,27.60
2018-05-16T10:49:01.621Z,26.10
2018-05-16T10:51:29.177Z,29.50
2018-05-16T10:53:56.736Z,26.00
2018-05-16T10:56:24.320Z,27.60
2018-05-16T10:58:51.880Z,27.20
2018-05-16T11:01:20.197Z,27.30
2018-05-16T11:03:47.749Z,27.00
2018-05-16T11:06:15.301Z,29.10
2018-05-16T11:08:42.880Z,27.40
2018-05-16T11:11:10.437Z,26.70
2018-05-16T11:13:37.988Z,26.90
2018-05-16T11:16:05.544Z,27.20
2018-05-16T11:18:33.115Z,27.10
2018-05-16T11:21:00.707Z,27.50
2018-05-16T11:23:29.029Z,28.80
2018-05-16T11:25:56.579Z,28.70
2018-05-16T11:28:24.141Z,27.90
2018-05-16T11:30:51.700Z,28.50
2018-05-16T11:33:19.273Z,28.80
2018-05-16T11:35:46.829Z,27.70
2018-05-16T11:38:14.392Z,27.80
2018-05-16T11:40:41.976Z,28.50
2018-05-16T11:43:09.532Z,29.20
2018-05-16T11:45:37.088Z,26.60
2018-05-16T11:48:04.660Z,27.90
2018-05-16T11:50:32.212Z,28.10
2018-05-16T11:52:59.765Z,28.70
2018-05-16T11:55:27.340Z,28.90
2018-05-16T11:57:55.669Z,29.40
2018-05-16T12:00:23.233Z,29.30
2018-05-16T12:02:50.833Z,29.00
2018-05-16T12:05:18.360Z,29.30
2018-05-16T12:07:45.917Z,27.80
2018-05-16T12:10:13.468Z,28.00
2018-05-16T12:12:41.018Z,29.50
2018-05-16T12:15:08.597Z,28.90
2018-05-16T12:17:36.153Z,29.60
2018-05-16T12:20:04.476Z,30.20
2018-05-16T12:22:32.037Z,30.30
2018-05-16T12:24:59.601Z,31.40
2018-05-16T12:27:27.174Z,30.90
2018-05-16T12:29:54.728Z,32.80
2018-05-16T12:32:22.300Z,31.10
2018-05-16T12:34:49.856Z,29.70
2018-05-16T12:37:17.415Z,30.10
2018-05-16T12:39:44.995Z,31.00
2018-05-16T12:42:12.560Z,31.70
2018-05-16T12:44:40.119Z,31.40
2018-05-16T12:47:07.685Z,31.80
2018-05-16T12:49:35.239Z,31.80
2018-05-16T12:52:02.808Z,34.10
2018-05-16T12:54:30.361Z,33.80
2018-05-16T12:56:57.916Z,32.70
2018-05-16T12:59:25.708Z,31.70
2018-05-16T13:01:54.036Z,34.10
2018-05-16T13:04:21.616Z,34.10
2018-05-16T13:06:49.168Z,33.60
2018-05-16T13:09:16.730Z,33.30
2018-05-16T13:11:44.317Z,35.60
2018-05-16T13:14:12.636Z,36.30
2018-05-16T13:16:40.223Z,36.30
2018-05-16T13:19:07.772Z,34.90
2018-05-16T13:21:35.428Z,35.60
2018-05-16T13:24:03.668Z,35.80
2018-05-16T13:26:31.220Z,35.20
2018-05-16T13:28:58.803Z,36.30
2018-05-16T13:31:26.355Z,36.80
2018-05-16T13:33:53.908Z,35.60
2018-05-16T13:36:21.474Z,36.40
2018-05-16T13:38:49.051Z,36.30
2018-05-16T13:41:16.624Z,37.10
2018-05-16T13:43:44.180Z,36.80
2018-05-16T13:46:11.732Z,36.80
2018-05-16T13:48:39.294Z,37.80
2018-05-16T13:51:06.844Z,37.80
2018-05-16T13:53:34.476Z,38.00
2018-05-16T13:56:02.010Z,38.60
2018-05-16T13:58:29.569Z,39.60
2018-05-16T14:00:57.124Z,38.60
2018-05-16T14:03:24.684Z,39.10
2018-05-16T14:05:52.262Z,41.00
2018-05-16T14:08:19.823Z,40.40
2018-05-16T14:10:47.382Z,39.70
2018-05-16T14:13:14.940Z,40.10
2018-05-16T14:15:42.503Z,41.00
2018-05-16T14:18:10.150Z,41.10
2018-05-16T14:20:37.700Z,41.10
2018-05-16T14:23:05.252Z,40.80
2018-05-16T14:25:32.833Z,40.40
2018-05-16T14:28:00.399Z,39.70
2018-05-16T14:30:27.980Z,39.90
2018-05-16T14:32:55.568Z,40.90
2018-05-16T14:35:23.886Z,41.70
2018-05-16T14:37:51.440Z,41.70
2018-05-16T14:40:18.997Z,42.00
2018-05-16T14:42:46.633Z,43.20
2018-05-16T14:45:14.160Z,41.90
2018-05-16T14:47:41.723Z,43.30
2018-05-16T14:50:09.381Z,42.70
2018-05-16T14:52:37.707Z,43.00
2018-05-16T14:55:06.118Z,43.00
2018-05-16T14:57:33.704Z,43.40
2018-05-16T15:00:01.283Z,43.90
2018-05-16T15:02:28.836Z,42.90
2018-05-16T15:04:56.388Z,45.20
2018-05-16T15:07:23.993Z,43.10
2018-05-16T15:09:51.565Z,42.30
2018-05-16T15:12:19.124Z,42.70
2018-05-16T15:14:46.747Z,41.90
2018-05-16T15:17:14.290Z,41.90
2018-05-16T15:19:41.890Z,44.20
2018-05-16T15:22:09.472Z,43.40
2018-05-16T15:24:37.048Z,42.90
2018-05-16T15:27:04.608Z,43.30
2018-05-16T15:29:32.939Z,42.10
2018-05-16T15:32:00.512Z,42.10
2018-05-16T15:34:28.089Z,41.70
2018-05-16T15:36:55.644Z,41.40
2018-05-16T15:39:23.204Z,41.50
2018-05-16T15:41:51.525Z,42.00
2018-05-16T15:44:19.081Z,41.90
2018-05-16T15:46:46.686Z,42.90
2018-05-16T15:49:14.256Z,41.10
2018-05-16T15:51:42.592Z,40.80
2018-05-16T15:54:10.146Z,40.80
2018-05-16T15:56:37.704Z,41.50
2018-05-16T15:59:05.276Z,40.90
2018-05-16T16:01:32.888Z,40.00
2018-05-16T16:04:00.440Z,40.70
2018-05-16T16:06:28.080Z,40.60
2018-05-16T16:08:55.640Z,40.80
2018-05-16T16:11:23.224Z,39.80
2018-05-16T16:13:51.635Z,39.90
2018-05-16T16:16:19.132Z,39.90
2018-05-16T16:18:46.684Z,39.90
2018-05-16T16:21:14.245Z,38.80
2018-05-16T16:23:41.844Z,39.90
2018-05-16T16:26:09.407Z,39.10
2018-05-16T16:28:37.915Z,38.50
2018-05-16T16:31:05.471Z,41.10
2018-05-16T16:33:33.030Z,39.80
2018-05-16T16:36:00.616Z,38.50
2018-05-16T16:38:28.945Z,39.60
2018-05-16T16:40:56.715Z,39.60
2018-05-16T16:43:24.293Z,39.40
2018-05-16T16:45:51.857Z,41.00
2018-05-16T16:48:19.473Z,41.30
2018-05-16T16:50:47.080Z,41.80
2018-05-16T16:53:14.648Z,42.00
2018-05-16T16:55:42.223Z,42.90
2018-05-16T16:58:10.539Z,42.30
2018-05-16T17:00:38.112Z,42.20
2018-05-16T17:03:05.667Z,43.00
2018-05-16T17:05:34.026Z,43.10
2018-05-16T17:08:01.749Z,43.00
2018-05-16T17:10:29.313Z,43.30
2018-05-16T17:12:56.924Z,43.30
2018-05-16T17:15:24.479Z,44.20
2018-05-16T17:17:52.028Z,44.30
2018-05-16T17:20:19.662Z,44.90
2018-05-16T17:22:47.160Z,45.60
2018-05-16T17:25:14.752Z,45.70
2018-05-16T17:27:42.344Z,46.40
2018-05-16T17:30:09.904Z,46.20
2018-05-16T17:32:37.545Z,46.50
2018-05-16T17:35:05.954Z,46.80
2018-05-16T17:37:33.539Z,46.80
2018-05-16T17:40:01.093Z,46.90
2018-05-16T17:42:28.644Z,47.20
2018-05-16T17:44:56.256Z,47.80
2018-05-16T17:47:23.811Z,48.30
2018-05-16T17:49:51.398Z,48.60
2018-05-16T17:52:18.957Z,48.20
2018-05-16T17:54:46.556Z,48.80
2018-05-16T17:57:14.111Z,48.80
2018-05-16T17:59:41.669Z,49.00
2018-05-16T18:02:09.248Z,49.50
2018-05-16T18:04:37.570Z,51.00
2018-05-16T18:07:05.122Z,50.30
2018-05-16T18:09:32.717Z,50.80
2018-05-16T18:12:00.268Z,51.30
2018-05-16T18:17:33.440Z,50.90
2018-05-16T18:20:01.024Z,51.90
2018-05-16T18:22:28.585Z,52.10
2018-05-16T18:24:56.144Z,52.80
2018-05-16T18:27:24.465Z,53.20
2018-05-16T18:29:52.784Z,53.70
2018-05-16T18:32:20.360Z,53.70
2018-05-16T18:34:47.917Z,53.50
2018-05-16T18:37:15.480Z,54.50
2018-05-16T18:39:43.095Z,54.00
2018-05-16T18:42:10.605Z,54.50
2018-05-16T18:44:38.188Z,53.60
2018-05-16T18:47:06.522Z,55.40
2018-05-16T18:49:34.090Z,55.40
2018-05-16T18:52:01.670Z,55.00
2018-05-16T18:54:29.997Z,55.20
2018-05-16T18:56:57.579Z,55.20
2018-05-16T18:59:25.128Z,55.20
2018-05-16T19:01:53.458Z,56.60
2018-05-16T19:04:21.016Z,56.60
2018-05-16T19:06:48.576Z,57.60
2018-05-16T19:09:16.161Z,58.70
2018-05-16T19:11:43.719Z,58.70
2018-05-16T19:14:11.280Z,57.80
2018-05-16T19:16:38.868Z,57.60
2018-05-16T19:19:06.428Z,57.90
2018-05-16T19:21:34.012Z,58.70
2018-05-16T19:24:02.339Z,59.90
2018-05-16T19:26:29.905Z,59.90
2018-05-16T19:28:57.462Z,58.80
2018-05-16T19:31:25.021Z,59.10
2018-05-16T19:33:52.601Z,59.80
2018-05-16T19:36:20.152Z,59.80
2018-05-16T19:38:47.716Z,59.80
2018-05-16T19:41:15.264Z,61.30
2018-05-16T19:43:42.821Z,61.70
2018-05-16T19:46:10.480Z,62.90
2018-05-16T19:48:37.980Z,62.20
2018-05-16T19:51:05.532Z,63.20
2018-05-16T19:53:33.848Z,62.90
2018-05-16T19:56:01.404Z,62.80
2018-05-16T19:58:29.024Z,63.40
2018-05-16T20:00:56.572Z,63.00
2018-05-16T20:03:24.959Z,64.00
2018-05-16T20:05:52.486Z,63.90
2018-05-16T20:08:20.047Z,63.80
2018-05-16T20:10:47.728Z,63.90
2018-05-16T20:13:15.284Z,63.50
2018-05-16T20:15:42.837Z,64.00
2018-05-16T20:18:11.169Z,63.40
2018-05-16T20:20:38.731Z,63.30
2018-05-16T20:23:06.496Z,63.70
2018-05-16T20:25:34.052Z,63.40
2018-05-16T20:28:01.604Z,64.80
2018-05-16T20:30:29.156Z,65.30
2018-05-16T20:32:56.713Z,65.20
2018-05-16T20:35:24.296Z,65.90
2018-05-16T20:37:51.848Z,66.30
2018-05-16T20:40:19.404Z,66.10
2018-05-16T20:42:46.957Z,67.00
2018-05-16T20:45:14.556Z,65.90
2018-05-16T20:47:42.124Z,66.40
2018-05-16T20:50:09.677Z,66.90
2018-05-16T20:52:38.003Z,66.20
2018-05-16T20:55:05.557Z,66.10
2018-05-16T20:57:33.152Z,67.40
2018-05-16T21:00:00.722Z,66.20
2018-05-16T21:02:29.046Z,68.20
2018-05-16T21:04:56.596Z,68.10
2018-05-16T21:07:24.155Z,68.20
2018-05-16T21:09:51.708Z,68.70
2018-05-16T21:12:19.332Z,67.60
2018-05-16T21:14:47.661Z,69.00
2018-05-16T21:17:15.216Z,69.00
2018-05-16T21:19:42.776Z,69.40
2018-05-16T21:22:10.332Z,69.30
2018-05-16T21:24:37.908Z,69.80
2018-05-16T21:27:05.464Z,69.00
2018-05-16T21:29:33.016Z,70.50
2018-05-16T21:32:00.581Z,70.40
2018-05-16T21:34:28.140Z,71.70
2018-05-16T21:36:55.712Z,71.00
2018-05-16T21:39:24.035Z,71.20
2018-05-16T21:41:51.594Z,71.20
2018-05-16T21:44:19.152Z,70.80
2018-05-16T21:46:46.711Z,70.80
2018-05-16T21:49:14.292Z,72.90
2018-05-16T21:51:41.845Z,75.90
2018-05-16T21:54:09.406Z,75.10
2018-05-16T21:56:37.056Z,73.50
2018-05-16T21:59:04.541Z,72.40
2018-05-16T22:01:32.129Z,72.00
2018-05-16T22:03:59.685Z,71.00
2018-05-16T22:06:27.244Z,70.90
2018-05-16T22:08:55.576Z,71.40
2018-05-16T22:11:23.128Z,71.30
2018-05-16T22:13:50.707Z,71.20
2018-05-16T22:16:19.030Z,70.50
2018-05-16T22:18:46.592Z,70.40
2018-05-16T22:21:14.144Z,69.80
2018-05-16T22:23:42.459Z,69.80
2018-05-16T22:26:10.041Z,69.80
2018-05-16T22:28:37.588Z,68.70
2018-05-16T22:31:10.828Z,68.60
2018-05-16T22:33:44.670Z,67.90
2018-05-16T22:36:17.890Z,67.90
2018-05-16T22:38:51.160Z,67.80
2018-05-16T22:41:24.304Z,67.70
2018-05-16T22:44:12.551Z,67.60
2018-05-16T22:46:40.104Z,67.50
2018-05-16T22:49:07.660Z,67.70
2018-05-16T22:51:35.220Z,67.70
2018-05-16T22:54:03.560Z,68.00
2018-05-16T22:56:31.108Z,67.90
2018-05-16T22:58:58.663Z,68.60
2018-05-16T23:01:26.221Z,68.80
2018-05-16T23:03:53.776Z,69.20
2018-05-16T23:06:21.354Z,69.60
2018-05-16T23:08:48.912Z,69.40
2018-05-16T23:11:16.464Z,70.00
2018-05-16T23:13:44.032Z,70.10
2018-05-16T23:16:11.601Z,70.00
2018-05-16T23:18:39.926Z,70.90
2018-05-16T23:21:07.484Z,70.90
2018-05-16T23:23:35.120Z,70.40
2018-05-16T23:26:02.614Z,69.90
2018-05-16T23:28:30.165Z,69.90
2018-05-16T23:30:57.716Z,70.00
2018-05-16T23:33:25.270Z,69.70
2018-05-16T23:35:52.820Z,70.30
2018-05-16T23:38:20.369Z,69.80
2018-05-16T23:40:47.946Z,70.30
2018-05-16T23:43:15.496Z,70.20
2018-05-16T23:45:43.045Z,71.00
2018-05-16T23:48:10.599Z,70.20
2018-05-16T23:50:38.179Z,69.40
2018-05-16T23:53:05.756Z,70.00
2018-05-16T23:55:33.312Z,70.00
2018-05-16T23:58:00.864Z,69.60
